createdAt,value
2023-04-18T00:01:12.515Z,64.70
2023-04-18T00:03:39.708Z,65.02
2023-04-18T00:06:06.916Z,65.26
2023-04-18T00:08:36.850Z,65.62
2023-04-18T00:11:03.826Z,65.76
2023-04-18T00:13:32.972Z,65.98
2023-04-18T00:16:02.833Z,66.52
2023-04-18T00:18:29.751Z,66.68
2023-04-18T00:20:56.918Z,67.92
2023-04-18T00:23:28.335Z,67.65
2023-04-18T00:25:55.256Z,68.19
2023-04-18T00:28:22.104Z,68.32
2023-04-18T00:30:51.502Z,68.17
2023-04-18T00:33:18.825Z,67.47
2023-04-18T00:35:48.077Z,66.92
2023-04-18T00:38:14.990Z,68.21
2023-04-18T00:40:41.904Z,67.96
2023-04-18T00:43:08.874Z,67.95
2023-04-18T00:45:38.051Z,68.01
2023-04-18T00:48:05.225Z,68.50
2023-04-18T00:50:32.112Z,68.73
2023-04-18T00:52:59.086Z,69.28
2023-04-18T00:55:26.113Z,70.09
2023-04-18T00:57:53.510Z,70.78
2023-04-18T01:00:25.741Z,70.85
2023-04-18T01:02:55.713Z,71.49
2023-04-18T01:05:23.685Z,70.53
2023-04-18T01:08:00.836Z,70.42
2023-04-18T01:10:28.750Z,70.58
2023-04-18T01:13:17.196Z,70.21
2023-04-18T01:15:50.678Z,69.62
2023-04-18T01:18:20.756Z,70.56
2023-04-18T01:20:53.061Z,70.52
2023-04-18T01:23:22.957Z,70.23
2023-04-18T01:25:57.062Z,70.47
2023-04-18T01:28:24.476Z,70.66
2023-04-18T01:30:54.543Z,70.24
2023-04-18T01:33:23.745Z,70.88
2023-04-18T01:35:52.732Z,70.42
2023-04-18T01:38:22.758Z,69.85
2023-04-18T01:40:49.762Z,70.46
2023-04-18T01:43:16.664Z,70.04
2023-04-18T01:45:45.944Z,69.90
2023-04-18T01:48:12.767Z,70.27
2023-04-18T01:50:42.602Z,69.21
2023-04-18T01:53:09.703Z,69.08
2023-04-18T01:55:36.656Z,69.56
2023-04-18T01:58:03.558Z,69.65
2023-04-18T02:00:30.592Z,69.79
2023-04-18T02:03:01.814Z,70.03
2023-04-18T02:05:28.965Z,70.58
2023-04-18T02:07:55.987Z,70.86
2023-04-18T02:10:23.023Z,70.57
2023-04-18T02:12:49.871Z,71.40
2023-04-18T02:15:16.725Z,71.13
2023-04-18T02:17:43.615Z,71.48
2023-04-18T02:20:13.412Z,72.32
2023-04-18T02:22:40.287Z,72.21
2023-04-18T02:25:08.118Z,72.03
2023-04-18T02:27:37.569Z,72.25
2023-04-18T02:30:04.860Z,73.18
2023-04-18T02:32:31.783Z,73.89
2023-04-18T02:34:58.696Z,74.18
2023-04-18T02:37:25.609Z,74.87
2023-04-18T02:39:52.531Z,74.58
2023-04-18T02:42:19.483Z,74.12
2023-04-18T02:44:48.416Z,74.60
2023-04-18T02:47:15.290Z,74.88
2023-04-18T02:49:42.105Z,74.41
2023-04-18T02:52:14.120Z,75.24
2023-04-18T02:54:41.042Z,75.23
2023-04-18T02:57:07.894Z,75.16
2023-04-18T02:59:34.827Z,81.58
2023-04-18T03:02:01.712Z,79.70
2023-04-18T03:04:28.550Z,80.47
2023-04-18T03:06:56.122Z,78.58
2023-04-18T03:09:25.205Z,75.85
2023-04-18T03:11:52.118Z,75.60
2023-04-18T03:14:26.032Z,75.34
2023-04-18T03:16:55.183Z,75.26
2023-04-18T03:19:22.555Z,74.52
2023-04-18T03:21:49.416Z,73.83
2023-04-18T03:24:18.526Z,74.61
2023-04-18T03:26:47.960Z,74.86
2023-04-18T03:29:15.031Z,74.06
2023-04-18T03:31:44.475Z,74.67
2023-04-18T03:34:11.619Z,73.82
2023-04-18T03:36:38.695Z,73.74
2023-04-18T03:39:05.621Z,74.89
2023-04-18T03:41:34.658Z,73.88
2023-04-18T03:44:03.995Z,74.14
2023-04-18T03:46:30.974Z,74.96
2023-04-18T03:48:57.875Z,74.89
2023-04-18T03:51:24.755Z,75.98
2023-04-18T03:53:51.777Z,76.64
2023-04-18T03:56:21.487Z,76.66
2023-04-18T03:58:50.514Z,76.47
2023-04-18T04:01:19.630Z,76.73
2023-04-18T04:03:50.160Z,76.72
2023-04-18T04:06:17.927Z,76.39
2023-04-18T04:08:44.805Z,75.91
2023-04-18T04:11:14.299Z,76.85
2023-04-18T04:13:41.148Z,77.19
2023-04-18T04:16:08.321Z,77.61
2023-04-18T04:18:38.164Z,77.59
2023-04-18T04:21:08.239Z,76.71
2023-04-18T04:23:42.651Z,77.39
2023-04-18T04:26:11.756Z,76.96
2023-04-18T04:28:39.894Z,77.96
2023-04-18T04:31:08.461Z,77.42
2023-04-18T04:33:38.911Z,78.06
2023-04-18T04:36:07.779Z,76.76
2023-04-18T04:38:38.459Z,78.09
2023-04-18T04:41:09.352Z,78.03
2023-04-18T04:43:41.286Z,77.13
2023-04-18T04:46:13.765Z,77.77
2023-04-18T04:48:40.948Z,77.44
2023-04-18T04:51:07.825Z,76.28
2023-04-18T04:53:37.913Z,78.39
2023-04-18T04:56:04.930Z,77.72
2023-04-18T04:58:31.894Z,78.52
2023-04-18T05:00:58.773Z,77.79
2023-04-18T05:03:26.183Z,78.07
2023-04-18T05:05:53.781Z,77.93
2023-04-18T05:08:20.626Z,76.65
2023-04-18T05:10:50.102Z,77.75
2023-04-18T05:13:17.091Z,77.03
2023-04-18T05:15:46.283Z,77.11
2023-04-18T05:18:14.294Z,76.33
2023-04-18T05:20:44.359Z,76.61
2023-04-18T05:23:18.335Z,77.31
2023-04-18T05:25:45.264Z,77.22
2023-04-18T05:28:12.127Z,77.44
2023-04-18T05:30:40.130Z,77.04
2023-04-18T05:33:07.058Z,76.20
2023-04-18T05:35:33.990Z,76.06
2023-04-18T05:38:02.962Z,76.34
2023-04-18T05:40:31.049Z,76.30
2023-04-18T05:42:57.883Z,76.05
2023-04-18T05:45:27.041Z,75.69
2023-04-18T05:47:56.474Z,75.63
2023-04-18T05:50:26.084Z,74.98
2023-04-18T05:52:53.090Z,74.51
2023-04-18T05:55:20.031Z,75.71
2023-04-18T05:57:46.900Z,76.36
2023-04-18T06:00:14.603Z,75.42
2023-04-18T06:02:41.568Z,75.09
2023-04-18T06:05:09.486Z,74.16
2023-04-18T06:07:36.652Z,72.21
2023-04-18T06:10:05.629Z,70.96
2023-04-18T06:12:32.555Z,71.20
2023-04-18T06:14:59.545Z,71.07
2023-04-18T06:17:28.644Z,70.46
2023-04-18T06:19:55.603Z,70.04
2023-04-18T06:22:22.444Z,69.64
2023-04-18T06:24:49.301Z,69.25
2023-04-18T06:27:30.161Z,68.23
2023-04-18T06:29:57.851Z,68.69
2023-04-18T06:32:24.765Z,68.12
2023-04-18T06:34:52.954Z,67.81
2023-04-18T06:37:22.416Z,66.78
2023-04-18T06:39:51.535Z,65.67
2023-04-18T06:42:19.632Z,65.23
2023-04-18T06:44:47.800Z,64.44
2023-04-18T06:47:14.975Z,64.26
2023-04-18T06:49:41.824Z,63.94
2023-04-18T06:52:11.662Z,63.25
2023-04-18T06:54:38.500Z,62.90
2023-04-18T06:57:07.708Z,61.15
2023-04-18T06:59:37.621Z,60.96
2023-04-18T07:02:10.756Z,60.10
2023-04-18T07:04:37.751Z,59.57
2023-04-18T07:07:07.099Z,59.84
2023-04-18T07:09:34.046Z,57.55
2023-04-18T07:12:03.372Z,55.20
2023-04-18T07:14:34.182Z,54.65
2023-04-18T07:17:01.970Z,54.93
2023-04-18T07:19:28.849Z,54.36
2023-04-18T07:21:55.948Z,54.74
2023-04-18T07:24:23.633Z,54.71
2023-04-18T07:26:55.069Z,53.81
2023-04-18T07:29:22.334Z,52.92
2023-04-18T07:31:49.986Z,53.49
2023-04-18T07:34:17.408Z,53.32
2023-04-18T07:36:44.369Z,52.62
2023-04-18T07:39:13.544Z,52.44
2023-04-18T07:41:43.341Z,51.95
2023-04-18T07:44:10.815Z,52.34
2023-04-18T07:46:37.733Z,52.43
2023-04-18T07:49:04.735Z,50.81
2023-04-18T07:51:31.713Z,50.40
2023-04-18T07:54:01.654Z,50.94
2023-04-18T07:56:31.034Z,50.51
2023-04-18T07:58:58.016Z,50.99
2023-04-18T08:01:27.890Z,51.60
2023-04-18T08:03:56.632Z,51.31
2023-04-18T08:06:23.769Z,51.11
2023-04-18T08:08:50.754Z,51.16
2023-04-18T08:11:20.197Z,50.99
2023-04-18T08:13:50.220Z,51.18
2023-04-18T08:16:19.312Z,49.61
2023-04-18T08:18:48.773Z,49.88
2023-04-18T08:21:15.724Z,50.96
2023-04-18T08:23:42.654Z,50.75
2023-04-18T08:26:09.574Z,50.83
2023-04-18T08:28:38.603Z,52.29
2023-04-18T08:31:08.061Z,53.15
2023-04-18T08:33:35.052Z,51.75
2023-04-18T08:36:01.945Z,51.31
2023-04-18T08:38:31.164Z,52.92
2023-04-18T08:40:58.122Z,53.50
2023-04-18T08:43:28.136Z,53.50
2023-04-18T08:46:00.105Z,54.36
2023-04-18T08:48:33.190Z,54.63
2023-04-18T08:51:03.039Z,54.19
2023-04-18T08:53:32.476Z,53.95
2023-04-18T08:56:00.324Z,54.05
2023-04-18T08:58:27.579Z,54.11
2023-04-18T09:00:57.702Z,54.07
2023-04-18T09:03:41.063Z,54.86
2023-04-18T09:06:13.821Z,54.31
2023-04-18T09:08:43.699Z,52.78
2023-04-18T09:11:31.766Z,52.59
2023-04-18T09:13:59.458Z,52.51
2023-04-18T09:16:27.815Z,54.22
2023-04-18T09:19:14.571Z,53.57
2023-04-18T09:21:48.726Z,52.89
2023-04-18T09:24:22.799Z,51.98
2023-04-18T09:26:51.345Z,51.61
2023-04-18T09:29:22.298Z,52.37
2023-04-18T09:32:01.754Z,50.84
2023-04-18T09:34:33.982Z,51.17
2023-04-18T09:37:16.776Z,50.11
2023-04-18T09:39:44.752Z,48.95
2023-04-18T09:42:12.433Z,50.46
2023-04-18T09:44:59.611Z,48.90
2023-04-18T09:47:28.110Z,49.40
2023-04-18T09:49:57.458Z,48.58
2023-04-18T09:52:33.003Z,48.04
2023-04-18T09:55:02.921Z,48.36
2023-04-18T09:57:31.711Z,48.38
2023-04-18T10:00:25.387Z,48.31
2023-04-18T10:03:09.896Z,48.14
2023-04-18T10:05:40.481Z,47.07
2023-04-18T10:08:09.404Z,48.56
2023-04-18T10:10:38.557Z,47.42
2023-04-18T10:13:08.495Z,46.54
2023-04-18T10:15:36.078Z,48.41
2023-04-18T10:18:10.269Z,48.25
2023-04-18T10:20:41.742Z,47.97
2023-04-18T10:23:37.360Z,47.71
2023-04-18T10:26:11.158Z,48.55
2023-04-18T10:28:54.649Z,48.29
2023-04-18T10:31:24.054Z,46.73
2023-04-18T10:34:05.385Z,46.49
2023-04-18T10:36:33.682Z,46.21
2023-04-18T10:39:06.142Z,46.19
2023-04-18T10:41:38.330Z,45.78
2023-04-18T10:44:15.554Z,45.19
2023-04-18T10:46:50.451Z,45.52
2023-04-18T10:49:25.354Z,46.43
2023-04-18T10:51:59.356Z,46.73
2023-04-18T10:54:30.840Z,47.37
2023-04-18T10:57:03.354Z,47.69
2023-04-18T10:59:36.459Z,48.24
2023-04-18T11:02:30.792Z,48.32
2023-04-18T11:05:00.219Z,47.65
2023-04-18T11:07:37.082Z,48.28
2023-04-18T11:10:09.611Z,47.54
2023-04-18T11:12:42.927Z,47.84
2023-04-18T11:15:22.289Z,48.39
2023-04-18T11:18:06.423Z,47.37
2023-04-18T11:20:47.356Z,47.33
2023-04-18T11:23:22.853Z,46.83
2023-04-18T11:25:53.697Z,46.49
2023-04-18T11:28:22.351Z,46.87
2023-04-18T11:30:50.287Z,46.24
2023-04-18T11:33:20.187Z,47.37
2023-04-18T11:35:47.233Z,47.32
2023-04-18T11:38:16.799Z,47.38
2023-04-18T11:40:52.440Z,47.54
2023-04-18T11:43:25.369Z,48.38
2023-04-18T11:46:02.600Z,48.99
2023-04-18T11:48:42.127Z,47.87
2023-04-18T11:51:34.020Z,47.37
2023-04-18T11:54:05.902Z,47.77
2023-04-18T11:56:34.577Z,47.32
2023-04-18T11:59:09.561Z,48.04
2023-04-18T12:01:36.450Z,45.93
2023-04-18T12:04:07.999Z,46.57
2023-04-18T12:06:53.707Z,47.35
2023-04-18T12:09:26.379Z,47.02
2023-04-18T12:12:01.012Z,47.62
2023-04-18T12:14:28.558Z,47.82
2023-04-18T12:16:56.208Z,47.70
2023-04-18T12:19:29.906Z,47.36
2023-04-18T12:22:05.100Z,46.53
2023-04-18T12:24:32.412Z,46.00
2023-04-18T12:27:00.098Z,46.12
2023-04-18T12:29:31.206Z,45.87
2023-04-18T12:32:01.095Z,46.59
2023-04-18T12:34:30.685Z,46.86
2023-04-18T12:36:57.578Z,46.97
2023-04-18T12:39:25.910Z,46.87
2023-04-18T12:41:52.788Z,47.66
2023-04-18T12:44:19.654Z,47.36
2023-04-18T12:46:46.660Z,47.91
2023-04-18T12:49:13.803Z,47.44
2023-04-18T12:51:40.734Z,47.14
2023-04-18T12:54:07.583Z,47.76
2023-04-18T12:56:36.697Z,48.29
2023-04-18T12:59:06.557Z,47.95
2023-04-18T13:01:33.478Z,47.81
2023-04-18T13:04:12.270Z,49.14
2023-04-18T13:06:39.615Z,49.94
2023-04-18T13:09:10.299Z,48.91
2023-04-18T13:11:40.124Z,49.70
2023-04-18T13:14:09.613Z,48.89
2023-04-18T13:16:40.552Z,49.10
2023-04-18T13:19:08.598Z,50.38
2023-04-18T13:21:35.475Z,50.01
2023-04-18T13:24:05.385Z,50.89
2023-04-18T13:26:35.591Z,49.99
2023-04-18T13:29:03.888Z,50.19
2023-04-18T13:31:31.469Z,49.93
2023-04-18T13:34:03.133Z,49.11
2023-04-18T13:36:37.229Z,49.72
2023-04-18T13:39:10.550Z,49.73
2023-04-18T13:41:37.481Z,49.26
2023-04-18T13:44:04.622Z,49.55
2023-04-18T13:46:34.611Z,49.97
2023-04-18T13:49:04.785Z,49.40
2023-04-18T13:51:31.700Z,49.73
2023-04-18T13:54:00.857Z,50.11
2023-04-18T13:56:28.256Z,50.63
2023-04-18T13:58:55.939Z,51.16
2023-04-18T14:01:22.818Z,50.88
2023-04-18T14:03:52.053Z,50.34
2023-04-18T14:06:23.482Z,52.03
2023-04-18T14:08:53.151Z,52.67
2023-04-18T14:11:20.997Z,52.96
2023-04-18T14:13:50.551Z,52.07
2023-04-18T14:16:19.111Z,53.64
2023-04-18T14:18:48.614Z,52.67
2023-04-18T14:21:15.486Z,52.52
2023-04-18T14:23:42.394Z,53.67
2023-04-18T14:26:09.276Z,53.39
2023-04-18T14:28:36.224Z,53.16
2023-04-18T14:31:05.455Z,52.38
2023-04-18T14:33:37.449Z,52.75
2023-04-18T14:36:04.856Z,51.92
2023-04-18T14:38:34.084Z,52.32
2023-04-18T14:41:01.218Z,52.32
2023-04-18T14:43:30.967Z,52.61
2023-04-18T14:45:59.482Z,53.30
2023-04-18T14:48:27.856Z,51.98
2023-04-18T14:50:59.712Z,52.39
2023-04-18T14:53:31.482Z,52.52
2023-04-18T14:56:00.757Z,52.59
2023-04-18T14:58:30.136Z,52.25
2023-04-18T15:00:57.143Z,52.06
2023-04-18T15:03:31.458Z,52.45
2023-04-18T15:06:00.660Z,52.71
2023-04-18T15:08:27.679Z,53.31
2023-04-18T15:10:59.314Z,53.58
2023-04-18T15:13:31.310Z,53.97
2023-04-18T15:15:58.318Z,53.28
2023-04-18T15:18:25.274Z,53.56
2023-04-18T15:20:52.254Z,53.52
2023-04-18T15:23:19.302Z,54.03
2023-04-18T15:25:49.101Z,53.84
2023-04-18T15:28:17.752Z,54.20
2023-04-18T15:30:44.774Z,54.96
2023-04-18T15:33:13.531Z,54.54
2023-04-18T15:35:40.472Z,53.82
2023-04-18T15:38:09.823Z,56.08
2023-04-18T15:40:36.688Z,56.27
2023-04-18T15:43:06.392Z,56.93
2023-04-18T15:45:36.126Z,57.23
2023-04-18T15:48:05.829Z,58.00
2023-04-18T15:50:36.747Z,58.42
2023-04-18T15:53:03.654Z,58.31
2023-04-18T15:55:30.498Z,59.51
2023-04-18T15:58:00.438Z,58.58
2023-04-18T16:00:27.658Z,59.58
2023-04-18T16:02:59.163Z,59.15
2023-04-18T16:05:26.173Z,60.51
2023-04-18T16:07:53.952Z,59.53
2023-04-18T16:10:20.880Z,59.26
2023-04-18T16:12:50.317Z,59.26
2023-04-18T16:15:17.322Z,59.64
2023-04-18T16:17:46.716Z,58.71
2023-04-18T16:20:16.127Z,58.57
2023-04-18T16:22:43.104Z,59.17
2023-04-18T16:25:12.814Z,61.02
2023-04-18T16:27:42.672Z,60.12
2023-04-18T16:30:12.329Z,60.19
2023-04-18T16:32:41.563Z,59.54
2023-04-18T16:35:10.233Z,59.66
2023-04-18T16:37:41.142Z,58.57
2023-04-18T16:40:11.230Z,58.71
2023-04-18T16:42:41.134Z,58.48
2023-04-18T16:45:10.532Z,59.35
2023-04-18T16:47:40.742Z,59.74
2023-04-18T16:50:12.476Z,60.55
2023-04-18T16:52:39.830Z,59.84
2023-04-18T16:55:09.594Z,59.69
2023-04-18T16:57:36.566Z,60.14
2023-04-18T17:00:05.357Z,59.30
2023-04-18T17:02:35.045Z,59.28
2023-04-18T17:05:02.498Z,59.21
2023-04-18T17:07:31.623Z,59.01
2023-04-18T17:09:58.683Z,58.79
2023-04-18T17:12:27.942Z,58.14
2023-04-18T17:14:54.884Z,58.03
2023-04-18T17:17:23.586Z,57.94
2023-04-18T17:19:50.769Z,56.74
2023-04-18T17:22:17.794Z,56.43
2023-04-18T17:24:44.743Z,55.71
2023-04-18T17:27:14.079Z,55.09
2023-04-18T17:29:41.393Z,55.74
2023-04-18T17:32:08.360Z,56.12
2023-04-18T17:34:37.464Z,55.54
2023-04-18T17:37:05.390Z,55.71
2023-04-18T17:39:32.832Z,55.99
2023-04-18T17:42:01.040Z,56.49
2023-04-18T17:44:27.947Z,56.88
2023-04-18T17:46:57.186Z,57.41
2023-04-18T17:49:24.095Z,56.83
2023-04-18T17:51:50.978Z,57.62
2023-04-18T17:54:20.031Z,57.26
2023-04-18T17:56:48.666Z,58.35
2023-04-18T17:59:17.885Z,58.02
2023-04-18T18:01:49.497Z,58.82
2023-04-18T18:04:16.734Z,58.78
2023-04-18T18:06:57.154Z,58.16
2023-04-18T18:09:24.060Z,58.31
2023-04-18T18:11:55.830Z,58.54
2023-04-18T18:14:23.453Z,58.61
2023-04-18T18:16:52.870Z,59.52
2023-04-18T18:19:22.767Z,60.08
2023-04-18T18:21:49.790Z,59.95
2023-04-18T18:24:16.806Z,60.02
2023-04-18T18:26:43.831Z,60.82
2023-04-18T18:29:13.264Z,61.61
2023-04-18T18:31:43.021Z,61.02
2023-04-18T18:34:10.336Z,61.02
2023-04-18T18:36:40.195Z,61.66
2023-04-18T18:39:07.148Z,61.25
2023-04-18T18:41:36.294Z,60.88
2023-04-18T18:44:03.224Z,61.31
2023-04-18T18:46:30.200Z,61.47
2023-04-18T18:48:57.175Z,61.60
2023-04-18T18:51:27.121Z,61.73
2023-04-18T18:53:57.448Z,61.59
2023-04-18T18:56:24.712Z,62.22
2023-04-18T18:58:56.133Z,62.58
2023-04-18T19:01:23.403Z,61.84
2023-04-18T19:03:53.082Z,62.09
2023-04-18T19:06:20.208Z,62.03
2023-04-18T19:08:47.182Z,62.13
2023-04-18T19:11:16.298Z,61.75
2023-04-18T19:13:45.795Z,61.91
2023-04-18T19:16:13.131Z,62.49
2023-04-18T19:18:41.437Z,61.53
2023-04-18T19:21:08.386Z,60.50
2023-04-18T19:26:03.020Z,60.44
2023-04-18T19:28:30.531Z,61.27
2023-04-18T19:30:57.520Z,59.79
2023-04-18T19:33:27.544Z,59.83
2023-04-18T19:35:54.373Z,59.91
2023-04-18T19:38:24.995Z,59.82
2023-04-18T19:40:54.317Z,58.59
2023-04-18T19:43:23.707Z,59.53
2023-04-18T19:45:52.061Z,59.62
2023-04-18T19:48:27.614Z,59.26
2023-04-18T19:50:56.617Z,59.56
2023-04-18T19:53:23.885Z,58.86
2023-04-18T19:55:50.932Z,59.46
2023-04-18T19:58:39.793Z,59.67
2023-04-18T20:01:09.998Z,59.15
2023-04-18T20:03:37.082Z,58.74
2023-04-18T20:06:05.679Z,57.82
2023-04-18T20:08:39.306Z,58.23
2023-04-18T20:11:11.121Z,57.93
2023-04-18T20:13:38.252Z,58.06
2023-04-18T20:16:07.278Z,56.51
2023-04-18T20:18:35.972Z,56.63
2023-04-18T20:21:07.884Z,55.49
2023-04-18T20:23:40.498Z,54.82
2023-04-18T20:26:07.507Z,54.54
2023-04-18T20:28:34.882Z,53.36
2023-04-18T20:31:03.295Z,54.06
2023-04-18T20:33:30.436Z,51.74
2023-04-18T20:36:00.367Z,51.77
2023-04-18T20:38:29.798Z,52.17
2023-04-18T20:40:58.821Z,50.22
2023-04-18T20:43:28.092Z,50.19
2023-04-18T20:45:57.978Z,49.93
2023-04-18T20:48:25.064Z,50.27
2023-04-18T20:50:52.366Z,50.13
2023-04-18T20:53:21.259Z,49.85
2023-04-18T20:55:48.828Z,49.69
2023-04-18T20:58:15.931Z,48.95
2023-04-18T21:00:44.564Z,48.98
2023-04-18T21:03:17.309Z,47.38
2023-04-18T21:05:45.577Z,46.63
2023-04-18T21:08:15.066Z,46.92
2023-04-18T21:10:44.086Z,46.59
2023-04-18T21:13:12.606Z,46.35
2023-04-18T21:15:42.047Z,45.85
2023-04-18T21:18:08.985Z,46.10
2023-04-18T21:20:36.877Z,46.29
2023-04-18T21:23:03.913Z,46.57
2023-04-18T21:25:30.832Z,46.28
2023-04-18T21:28:00.213Z,46.17
2023-04-18T21:30:27.351Z,46.07
2023-04-18T21:32:54.239Z,46.04
2023-04-18T21:35:23.378Z,44.98
2023-04-18T21:37:51.755Z,45.49
2023-04-18T21:40:18.917Z,45.59
2023-04-18T21:42:46.537Z,45.81
2023-04-18T21:45:14.732Z,45.76
2023-04-18T21:47:46.810Z,46.34
2023-04-18T21:50:14.101Z,46.49
2023-04-18T21:52:43.132Z,46.42
2023-04-18T21:55:10.235Z,46.76
2023-04-18T21:57:39.366Z,46.68
2023-04-18T22:00:11.246Z,47.08
2023-04-18T22:02:40.215Z,47.02
2023-04-18T22:05:08.033Z,46.74
2023-04-18T22:07:50.140Z,47.38
2023-04-18T22:10:24.792Z,47.73
2023-04-18T22:12:56.310Z,47.31
2023-04-18T22:15:27.172Z,47.61
2023-04-18T22:17:54.486Z,48.13
2023-04-18T22:20:21.707Z,47.88
2023-04-18T22:22:51.549Z,47.81
2023-04-18T22:25:21.468Z,48.22
2023-04-18T22:27:48.360Z,48.19
2023-04-18T22:30:17.525Z,48.44
2023-04-18T22:32:44.528Z,48.93
2023-04-18T22:35:13.934Z,48.58
2023-04-18T22:37:43.991Z,48.49
2023-04-18T22:40:12.484Z,48.21
2023-04-18T22:42:39.817Z,48.90
2023-04-18T22:45:07.834Z,48.91
2023-04-18T22:47:34.775Z,48.55
2023-04-18T22:50:01.676Z,48.20
2023-04-18T22:52:29.686Z,48.27
2023-04-18T22:54:56.712Z,48.06
2023-04-18T22:57:25.947Z,48.19
2023-04-18T22:59:52.784Z,47.74
2023-04-18T23:02:19.783Z,48.22
2023-04-18T23:04:47.000Z,48.93
2023-04-18T23:07:13.944Z,48.20
2023-04-18T23:09:41.151Z,48.72
2023-04-18T23:12:08.087Z,49.28
2023-04-18T23:14:35.887Z,49.74
2023-04-18T23:17:05.368Z,49.70
2023-04-18T23:19:34.475Z,49.35
2023-04-18T23:22:01.335Z,50.09
2023-04-18T23:24:30.709Z,49.49
2023-04-18T23:26:58.102Z,49.21
2023-04-18T23:29:25.002Z,49.33
2023-04-18T23:31:51.910Z,50.17
2023-04-18T23:34:21.811Z,50.73
2023-04-18T23:36:48.768Z,50.26
2023-04-18T23:39:18.363Z,49.97
2023-04-18T23:41:45.636Z,49.68
2023-04-18T23:44:15.041Z,50.33
2023-04-18T23:46:42.228Z,50.72
2023-04-18T23:49:09.214Z,51.05
2023-04-18T23:51:36.238Z,50.80
2023-04-18T23:54:05.564Z,51.68
2023-04-18T23:56:33.528Z,51.97
2023-04-18T23:59:00.369Z,52.46
